Pagrindinis puslapis
METAR-TAF:

METAR-TAF

Oro uostai :

Pontiac Municipal Airport

Pontiac, Ilinojus, Jungtinės Amerikos Valstijos

platuma: 40-55-25N, ilguma: 088-37-31W, Aukštis: 201 m

Dabartinis oras

Ataskaita buvo paskelbta 12 minutes, ne 06:55 UTC
Vėjas 7 kt iš Pietų
Temperatūra 22°C
Drėgmė 88%
Slėgis 1015 hPa
Matomumas: 16.1 km
Apsiniaukę ne aukštis 11000 ft

METAR: KPNT 270655Z AUTO 18007KT 10SM OVC110 22/20 A2996 RMK AO2 T02210202

Laikas: 02:07 (07:07 UTC)


TAF: trūkstamas

Orai ataskaitas ir orų prognozės (METAR, TAF).

turimą stotys yra geltonos ir raudonos taškus žemėlapyje.

Perkelti pele per norėdami pamatyti stoties vardą.

Tada spustelėkite, norėdami matyti oro stebėjimo ir prognozės.

Norėdami pakeisti žemėlapį: spustelėkite ant žalios mygtukų su juodo kryžiaus žemyn,; žalią mygtuką su brūkšneliu, jei norite nutolinti; arba žalių rodyklių gretimoms žemėlapius.


METAR-TAF: